sensor_id;sensor_type;location;lat;lon;timestamp;P1;durP1;ratioP1;P2;durP2;ratioP2
36315;SDS011;22343;50.820;2.666;2023-12-07T00:00:14;20.23;;;8.40;;
36315;SDS011;22343;50.820;2.666;2023-12-07T00:02:59;17.77;;;7.80;;
36315;SDS011;22343;50.820;2.666;2023-12-07T00:05:43;16.93;;;7.90;;
36315;SDS011;22343;50.820;2.666;2023-12-07T00:08:28;19.20;;;8.40;;
36315;SDS011;22343;50.820;2.666;2023-12-07T00:11:12;31.63;;;12.73;;
36315;SDS011;22343;50.820;2.666;2023-12-07T00:13:56;20.97;;;8.10;;
36315;SDS011;22343;50.820;2.666;2023-12-07T00:16:40;26.40;;;8.83;;
36315;SDS011;22343;50.820;2.666;2023-12-07T00:19:25;22.03;;;8.10;;
36315;SDS011;22343;50.820;2.666;2023-12-07T00:22:09;21.93;;;8.17;;
36315;SDS011;22343;50.820;2.666;2023-12-07T00:24:53;23.67;;;8.80;;
36315;SDS011;22343;50.820;2.666;2023-12-07T00:27:38;21.43;;;9.53;;
36315;SDS011;22343;50.820;2.666;2023-12-07T00:30:22;36.83;;;9.30;;
36315;SDS011;22343;50.820;2.666;2023-12-07T00:33:06;41.80;;;8.57;;
36315;SDS011;22343;50.820;2.666;2023-12-07T00:35:51;26.13;;;8.07;;
36315;SDS011;22343;50.820;2.666;2023-12-07T00:38:35;23.43;;;8.27;;
36315;SDS011;22343;50.820;2.666;2023-12-07T00:41:19;23.27;;;8.37;;
36315;SDS011;22343;50.820;2.666;2023-12-07T00:44:04;39.27;;;8.80;;
36315;SDS011;22343;50.820;2.666;2023-12-07T00:46:50;25.70;;;7.97;;
36315;SDS011;22343;50.820;2.666;2023-12-07T00:49:38;20.83;;;6.43;;
36315;SDS011;22343;50.820;2.666;2023-12-07T00:52:24;41.30;;;8.53;;
36315;SDS011;22343;50.820;2.666;2023-12-07T00:55:09;19.00;;;6.27;;
36315;SDS011;22343;50.820;2.666;2023-12-07T00:57:54;22.97;;;6.93;;
36315;SDS011;22343;50.820;2.666;2023-12-07T01:00:38;35.47;;;7.90;;
36315;SDS011;22343;50.820;2.666;2023-12-07T01:03:23;28.10;;;7.03;;
36315;SDS011;22343;50.820;2.666;2023-12-07T01:06:07;17.03;;;6.60;;
36315;SDS011;22343;50.820;2.666;2023-12-07T01:08:52;24.97;;;7.57;;
36315;SDS011;22343;50.820;2.666;2023-12-07T01:11:36;20.77;;;6.50;;
36315;SDS011;22343;50.820;2.666;2023-12-07T01:14:20;30.70;;;7.70;;
36315;SDS011;22343;50.820;2.666;2023-12-07T01:17:04;40.30;;;8.10;;
36315;SDS011;22343;50.820;2.666;2023-12-07T01:19:49;26.63;;;6.70;;
36315;SDS011;22343;50.820;2.666;2023-12-07T01:22:33;31.83;;;7.70;;
36315;SDS011;22343;50.820;2.666;2023-12-07T01:25:17;23.77;;;6.83;;
36315;SDS011;22343;50.820;2.666;2023-12-07T01:28:05;29.17;;;7.33;;
36315;SDS011;22343;50.820;2.666;2023-12-07T01:30:50;27.13;;;7.97;;
36315;SDS011;22343;50.820;2.666;2023-12-07T01:33:34;31.73;;;8.00;;
36315;SDS011;22343;50.820;2.666;2023-12-07T01:36:18;31.67;;;8.70;;
36315;SDS011;22343;50.820;2.666;2023-12-07T01:39:03;39.67;;;8.00;;
36315;SDS011;22343;50.820;2.666;2023-12-07T01:41:49;39.20;;;8.73;;
36315;SDS011;22343;50.820;2.666;2023-12-07T01:44:33;30.73;;;8.57;;
36315;SDS011;22343;50.820;2.666;2023-12-07T01:47:18;32.43;;;8.13;;
36315;SDS011;22343;50.820;2.666;2023-12-07T01:50:03;32.13;;;8.13;;
36315;SDS011;22343;50.820;2.666;2023-12-07T01:52:52;32.13;;;8.23;;
36315;SDS011;22343;50.820;2.666;2023-12-07T01:55:39;36.07;;;8.70;;
36315;SDS011;22343;50.820;2.666;2023-12-07T01:58:24;32.03;;;8.47;;
36315;SDS011;22343;50.820;2.666;2023-12-07T02:01:09;28.50;;;7.53;;
36315;SDS011;22343;50.820;2.666;2023-12-07T02:03:55;40.10;;;8.63;;
36315;SDS011;22343;50.820;2.666;2023-12-07T02:06:39;30.73;;;8.20;;
36315;SDS011;22343;50.820;2.666;2023-12-07T02:09:24;32.67;;;9.43;;
36315;SDS011;22343;50.820;2.666;2023-12-07T02:12:08;34.07;;;8.97;;
36315;SDS011;22343;50.820;2.666;2023-12-07T02:14:52;36.43;;;9.30;;
36315;SDS011;22343;50.820;2.666;2023-12-07T02:20:39;37.30;;;8.83;;
36315;SDS011;22343;50.820;2.666;2023-12-07T02:23:36;28.87;;;8.60;;
36315;SDS011;22343;50.820;2.666;2023-12-07T02:26:21;26.00;;;8.67;;
36315;SDS011;22343;50.820;2.666;2023-12-07T02:29:06;22.67;;;7.47;;
36315;SDS011;22343;50.820;2.666;2023-12-07T02:31:51;30.23;;;8.63;;
36315;SDS011;22343;50.820;2.666;2023-12-07T02:34:35;28.70;;;8.50;;
36315;SDS011;22343;50.820;2.666;2023-12-07T02:37:19;38.03;;;8.23;;
36315;SDS011;22343;50.820;2.666;2023-12-07T02:40:06;23.97;;;8.23;;
36315;SDS011;22343;50.820;2.666;2023-12-07T02:42:56;30.73;;;8.77;;
36315;SDS011;22343;50.820;2.666;2023-12-07T02:45:41;28.13;;;9.43;;
36315;SDS011;22343;50.820;2.666;2023-12-07T02:48:26;23.70;;;8.00;;
36315;SDS011;22343;50.820;2.666;2023-12-07T02:51:10;30.87;;;9.23;;
36315;SDS011;22343;50.820;2.666;2023-12-07T02:53:55;44.07;;;9.20;;
36315;SDS011;22343;50.820;2.666;2023-12-07T02:56:39;48.67;;;10.87;;
36315;SDS011;22343;50.820;2.666;2023-12-07T02:59:23;47.67;;;11.07;;
36315;SDS011;22343;50.820;2.666;2023-12-07T03:02:07;43.70;;;11.50;;
36315;SDS011;22343;50.820;2.666;2023-12-07T03:04:52;41.90;;;11.77;;
36315;SDS011;22343;50.820;2.666;2023-12-07T03:07:37;34.73;;;10.10;;
36315;SDS011;22343;50.820;2.666;2023-12-07T03:10:21;41.13;;;11.53;;
36315;SDS011;22343;50.820;2.666;2023-12-07T03:13:05;41.13;;;11.47;;
36315;SDS011;22343;50.820;2.666;2023-12-07T03:15:49;49.13;;;12.90;;
36315;SDS011;22343;50.820;2.666;2023-12-07T03:18:34;52.00;;;12.47;;
36315;SDS011;22343;50.820;2.666;2023-12-07T03:21:18;45.90;;;12.60;;
36315;SDS011;22343;50.820;2.666;2023-12-07T03:24:02;60.40;;;13.47;;
36315;SDS011;22343;50.820;2.666;2023-12-07T03:26:47;48.67;;;11.43;;
36315;SDS011;22343;50.820;2.666;2023-12-07T03:29:32;35.23;;;12.00;;
36315;SDS011;22343;50.820;2.666;2023-12-07T03:32:16;38.53;;;11.73;;
36315;SDS011;22343;50.820;2.666;2023-12-07T03:35:00;38.17;;;10.90;;
36315;SDS011;22343;50.820;2.666;2023-12-07T03:37:45;44.50;;;13.87;;
36315;SDS011;22343;50.820;2.666;2023-12-07T03:40:29;32.20;;;13.20;;
36315;SDS011;22343;50.820;2.666;2023-12-07T03:43:13;34.97;;;13.70;;
36315;SDS011;22343;50.820;2.666;2023-12-07T03:45:58;41.13;;;13.00;;
36315;SDS011;22343;50.820;2.666;2023-12-07T03:48:42;38.67;;;13.03;;
36315;SDS011;22343;50.820;2.666;2023-12-07T03:51:27;40.67;;;13.10;;
36315;SDS011;22343;50.820;2.666;2023-12-07T03:54:11;23.50;;;11.37;;
36315;SDS011;22343;50.820;2.666;2023-12-07T03:56:56;25.67;;;11.97;;
36315;SDS011;22343;50.820;2.666;2023-12-07T03:59:40;35.63;;;12.70;;
36315;SDS011;22343;50.820;2.666;2023-12-07T04:02:24;30.17;;;12.43;;
36315;SDS011;22343;50.820;2.666;2023-12-07T04:05:09;33.90;;;13.30;;
36315;SDS011;22343;50.820;2.666;2023-12-07T04:07:53;39.33;;;13.23;;
36315;SDS011;22343;50.820;2.666;2023-12-07T04:10:37;50.33;;;13.90;;
36315;SDS011;22343;50.820;2.666;2023-12-07T04:13:22;46.87;;;14.33;;
36315;SDS011;22343;50.820;2.666;2023-12-07T04:16:06;39.23;;;14.90;;
36315;SDS011;22343;50.820;2.666;2023-12-07T04:18:52;41.23;;;15.53;;
36315;SDS011;22343;50.820;2.666;2023-12-07T04:21:37;27.80;;;10.73;;
36315;SDS011;22343;50.820;2.666;2023-12-07T04:24:22;31.17;;;13.20;;
36315;SDS011;22343;50.820;2.666;2023-12-07T04:27:06;27.33;;;13.27;;
36315;SDS011;22343;50.820;2.666;2023-12-07T04:29:50;24.90;;;11.03;;
36315;SDS011;22343;50.820;2.666;2023-12-07T04:32:35;19.07;;;9.13;;
36315;SDS011;22343;50.820;2.666;2023-12-07T04:35:19;21.67;;;10.33;;
36315;SDS011;22343;50.820;2.666;2023-12-07T04:38:03;23.73;;;11.03;;
36315;SDS011;22343;50.820;2.666;2023-12-07T04:40:48;22.57;;;10.40;;
36315;SDS011;22343;50.820;2.666;2023-12-07T04:43:32;21.53;;;10.17;;
36315;SDS011;22343;50.820;2.666;2023-12-07T04:46:17;22.43;;;9.93;;
36315;SDS011;22343;50.820;2.666;2023-12-07T04:49:01;18.30;;;10.30;;
36315;SDS011;22343;50.820;2.666;2023-12-07T04:51:45;19.53;;;10.13;;
36315;SDS011;22343;50.820;2.666;2023-12-07T04:54:30;18.13;;;9.03;;
36315;SDS011;22343;50.820;2.666;2023-12-07T04:57:14;20.67;;;10.43;;
36315;SDS011;22343;50.820;2.666;2023-12-07T04:59:59;22.63;;;10.70;;
36315;SDS011;22343;50.820;2.666;2023-12-07T05:02:43;19.60;;;10.33;;
36315;SDS011;22343;50.820;2.666;2023-12-07T05:05:28;21.77;;;9.93;;
36315;SDS011;22343;50.820;2.666;2023-12-07T05:08:12;20.23;;;10.03;;
36315;SDS011;22343;50.820;2.666;2023-12-07T05:10:57;24.50;;;11.60;;
36315;SDS011;22343;50.820;2.666;2023-12-07T05:13:41;19.77;;;8.87;;
36315;SDS011;22343;50.820;2.666;2023-12-07T05:16:27;19.80;;;9.97;;
36315;SDS011;22343;50.820;2.666;2023-12-07T05:19:11;22.37;;;11.17;;
36315;SDS011;22343;50.820;2.666;2023-12-07T05:21:56;20.07;;;10.53;;
36315;SDS011;22343;50.820;2.666;2023-12-07T05:24:40;19.50;;;10.20;;
36315;SDS011;22343;50.820;2.666;2023-12-07T05:27:25;18.93;;;10.30;;
36315;SDS011;22343;50.820;2.666;2023-12-07T05:30:09;19.97;;;9.67;;
36315;SDS011;22343;50.820;2.666;2023-12-07T05:32:54;22.40;;;10.07;;
36315;SDS011;22343;50.820;2.666;2023-12-07T05:35:38;16.07;;;8.53;;
36315;SDS011;22343;50.820;2.666;2023-12-07T05:38:23;17.63;;;9.57;;
36315;SDS011;22343;50.820;2.666;2023-12-07T05:41:07;17.20;;;9.07;;
36315;SDS011;22343;50.820;2.666;2023-12-07T05:43:52;19.73;;;9.20;;
36315;SDS011;22343;50.820;2.666;2023-12-07T05:46:36;20.00;;;9.80;;
36315;SDS011;22343;50.820;2.666;2023-12-07T05:49:22;19.70;;;9.77;;
36315;SDS011;22343;50.820;2.666;2023-12-07T05:52:07;20.57;;;10.27;;
36315;SDS011;22343;50.820;2.666;2023-12-07T05:54:51;19.80;;;10.27;;
36315;SDS011;22343;50.820;2.666;2023-12-07T05:57:36;21.47;;;10.77;;
36315;SDS011;22343;50.820;2.666;2023-12-07T06:00:21;21.73;;;9.93;;
36315;SDS011;22343;50.820;2.666;2023-12-07T06:03:05;21.23;;;10.97;;
36315;SDS011;22343;50.820;2.666;2023-12-07T06:05:50;22.43;;;11.60;;
36315;SDS011;22343;50.820;2.666;2023-12-07T06:08:34;21.57;;;11.67;;
36315;SDS011;22343;50.820;2.666;2023-12-07T06:11:18;22.37;;;10.33;;
36315;SDS011;22343;50.820;2.666;2023-12-07T06:14:03;23.13;;;10.63;;
36315;SDS011;22343;50.820;2.666;2023-12-07T06:16:50;22.60;;;11.23;;
36315;SDS011;22343;50.820;2.666;2023-12-07T06:19:34;34.13;;;13.20;;
36315;SDS011;22343;50.820;2.666;2023-12-07T06:22:18;22.57;;;11.20;;
36315;SDS011;22343;50.820;2.666;2023-12-07T06:25:03;28.97;;;11.53;;
36315;SDS011;22343;50.820;2.666;2023-12-07T06:27:48;27.80;;;12.57;;
36315;SDS011;22343;50.820;2.666;2023-12-07T06:30:32;22.33;;;11.83;;
36315;SDS011;22343;50.820;2.666;2023-12-07T06:33:17;30.43;;;12.83;;
36315;SDS011;22343;50.820;2.666;2023-12-07T06:36:01;22.57;;;11.47;;
36315;SDS011;22343;50.820;2.666;2023-12-07T06:38:47;24.90;;;12.07;;
36315;SDS011;22343;50.820;2.666;2023-12-07T06:41:31;26.70;;;12.60;;
36315;SDS011;22343;50.820;2.666;2023-12-07T06:44:17;24.43;;;12.37;;
36315;SDS011;22343;50.820;2.666;2023-12-07T06:47:01;29.27;;;11.40;;
36315;SDS011;22343;50.820;2.666;2023-12-07T06:49:48;22.90;;;11.63;;
36315;SDS011;22343;50.820;2.666;2023-12-07T06:52:32;23.13;;;11.20;;
36315;SDS011;22343;50.820;2.666;2023-12-07T06:55:17;17.40;;;8.77;;
36315;SDS011;22343;50.820;2.666;2023-12-07T06:58:01;21.07;;;10.27;;
36315;SDS011;22343;50.820;2.666;2023-12-07T07:00:45;23.03;;;11.00;;
36315;SDS011;22343;50.820;2.666;2023-12-07T07:03:31;21.30;;;10.23;;
36315;SDS011;22343;50.820;2.666;2023-12-07T07:06:15;19.33;;;9.40;;
36315;SDS011;22343;50.820;2.666;2023-12-07T07:08:59;20.33;;;9.60;;
36315;SDS011;22343;50.820;2.666;2023-12-07T07:11:47;18.80;;;9.50;;
36315;SDS011;22343;50.820;2.666;2023-12-07T07:14:32;22.10;;;10.37;;
36315;SDS011;22343;50.820;2.666;2023-12-07T07:17:17;19.97;;;10.07;;
36315;SDS011;22343;50.820;2.666;2023-12-07T07:20:01;19.27;;;9.53;;
36315;SDS011;22343;50.820;2.666;2023-12-07T07:22:46;19.37;;;9.27;;
36315;SDS011;22343;50.820;2.666;2023-12-07T07:25:30;17.60;;;8.90;;
36315;SDS011;22343;50.820;2.666;2023-12-07T07:28:14;21.97;;;10.27;;
36315;SDS011;22343;50.820;2.666;2023-12-07T07:30:59;17.20;;;9.53;;
36315;SDS011;22343;50.820;2.666;2023-12-07T07:33:44;18.77;;;9.73;;
36315;SDS011;22343;50.820;2.666;2023-12-07T07:36:29;16.87;;;9.13;;
36315;SDS011;22343;50.820;2.666;2023-12-07T07:39:14;19.07;;;9.30;;
36315;SDS011;22343;50.820;2.666;2023-12-07T07:41:58;19.43;;;10.07;;
36315;SDS011;22343;50.820;2.666;2023-12-07T07:44:44;18.53;;;9.73;;
36315;SDS011;22343;50.820;2.666;2023-12-07T07:47:28;18.77;;;9.17;;
36315;SDS011;22343;50.820;2.666;2023-12-07T07:50:12;16.40;;;9.07;;
36315;SDS011;22343;50.820;2.666;2023-12-07T07:52:57;19.70;;;9.63;;
36315;SDS011;22343;50.820;2.666;2023-12-07T07:55:42;19.93;;;9.93;;
36315;SDS011;22343;50.820;2.666;2023-12-07T07:58:27;18.93;;;10.00;;
36315;SDS011;22343;50.820;2.666;2023-12-07T08:01:11;21.70;;;10.30;;
36315;SDS011;22343;50.820;2.666;2023-12-07T08:03:55;19.30;;;10.67;;
36315;SDS011;22343;50.820;2.666;2023-12-07T08:06:40;20.27;;;9.47;;
36315;SDS011;22343;50.820;2.666;2023-12-07T08:09:24;16.53;;;8.90;;
36315;SDS011;22343;50.820;2.666;2023-12-07T08:12:10;19.13;;;9.90;;
36315;SDS011;22343;50.820;2.666;2023-12-07T08:14:54;19.80;;;10.70;;
36315;SDS011;22343;50.820;2.666;2023-12-07T08:17:41;22.30;;;11.07;;
36315;SDS011;22343;50.820;2.666;2023-12-07T08:20:26;19.23;;;10.93;;
36315;SDS011;22343;50.820;2.666;2023-12-07T08:23:11;21.17;;;10.23;;
36315;SDS011;22343;50.820;2.666;2023-12-07T08:25:55;19.27;;;11.13;;
36315;SDS011;22343;50.820;2.666;2023-12-07T08:28:41;22.53;;;11.93;;
36315;SDS011;22343;50.820;2.666;2023-12-07T08:31:26;23.20;;;13.07;;
36315;SDS011;22343;50.820;2.666;2023-12-07T08:34:10;19.10;;;10.90;;
36315;SDS011;22343;50.820;2.666;2023-12-07T08:36:54;22.83;;;11.07;;
36315;SDS011;22343;50.820;2.666;2023-12-07T08:39:39;25.13;;;12.30;;
36315;SDS011;22343;50.820;2.666;2023-12-07T08:42:23;18.67;;;11.07;;
36315;SDS011;22343;50.820;2.666;2023-12-07T08:45:07;19.60;;;10.53;;
36315;SDS011;22343;50.820;2.666;2023-12-07T08:47:52;18.70;;;10.73;;
36315;SDS011;22343;50.820;2.666;2023-12-07T08:50:36;22.70;;;11.60;;
36315;SDS011;22343;50.820;2.666;2023-12-07T08:53:21;20.83;;;11.00;;
36315;SDS011;22343;50.820;2.666;2023-12-07T08:56:05;19.03;;;10.57;;
36315;SDS011;22343;50.820;2.666;2023-12-07T08:58:50;17.20;;;10.47;;
36315;SDS011;22343;50.820;2.666;2023-12-07T09:01:35;19.80;;;9.87;;
36315;SDS011;22343;50.820;2.666;2023-12-07T09:04:19;20.13;;;10.37;;
36315;SDS011;22343;50.820;2.666;2023-12-07T09:07:04;19.00;;;10.17;;
36315;SDS011;22343;50.820;2.666;2023-12-07T09:09:48;17.43;;;9.93;;
36315;SDS011;22343;50.820;2.666;2023-12-07T09:12:32;16.17;;;9.60;;
36315;SDS011;22343;50.820;2.666;2023-12-07T09:15:16;20.37;;;10.53;;
36315;SDS011;22343;50.820;2.666;2023-12-07T09:18:01;21.90;;;10.67;;
36315;SDS011;22343;50.820;2.666;2023-12-07T09:20:46;20.10;;;10.53;;
36315;SDS011;22343;50.820;2.666;2023-12-07T09:23:31;15.77;;;9.33;;
36315;SDS011;22343;50.820;2.666;2023-12-07T09:26:15;19.40;;;10.53;;
36315;SDS011;22343;50.820;2.666;2023-12-07T09:28:59;17.43;;;9.63;;
36315;SDS011;22343;50.820;2.666;2023-12-07T09:31:44;17.07;;;9.33;;
36315;SDS011;22343;50.820;2.666;2023-12-07T09:34:28;18.80;;;10.00;;
36315;SDS011;22343;50.820;2.666;2023-12-07T09:37:12;17.87;;;9.57;;
36315;SDS011;22343;50.820;2.666;2023-12-07T09:39:57;16.30;;;9.23;;
36315;SDS011;22343;50.820;2.666;2023-12-07T09:42:41;17.83;;;9.47;;
36315;SDS011;22343;50.820;2.666;2023-12-07T09:45:26;17.20;;;10.30;;
36315;SDS011;22343;50.820;2.666;2023-12-07T09:48:11;16.00;;;9.57;;
36315;SDS011;22343;50.820;2.666;2023-12-07T09:50:56;15.43;;;9.67;;
36315;SDS011;22343;50.820;2.666;2023-12-07T09:53:42;18.60;;;10.10;;
36315;SDS011;22343;50.820;2.666;2023-12-07T09:56:28;16.93;;;9.20;;
36315;SDS011;22343;50.820;2.666;2023-12-07T09:59:12;16.67;;;9.27;;
36315;SDS011;22343;50.820;2.666;2023-12-07T10:01:56;14.00;;;9.03;;
36315;SDS011;22343;50.820;2.666;2023-12-07T10:04:41;14.90;;;8.50;;
36315;SDS011;22343;50.820;2.666;2023-12-07T10:07:32;15.03;;;9.17;;
36315;SDS011;22343;50.820;2.666;2023-12-07T10:10:20;16.83;;;9.27;;
36315;SDS011;22343;50.820;2.666;2023-12-07T10:13:04;16.43;;;9.13;;
36315;SDS011;22343;50.820;2.666;2023-12-07T10:15:49;16.43;;;9.87;;
36315;SDS011;22343;50.820;2.666;2023-12-07T10:18:50;15.23;;;9.07;;
36315;SDS011;22343;50.820;2.666;2023-12-07T10:21:34;13.70;;;9.13;;
36315;SDS011;22343;50.820;2.666;2023-12-07T10:24:20;15.07;;;8.47;;
36315;SDS011;22343;50.820;2.666;2023-12-07T10:27:05;15.67;;;9.03;;
36315;SDS011;22343;50.820;2.666;2023-12-07T10:29:51;13.27;;;8.20;;
36315;SDS011;22343;50.820;2.666;2023-12-07T10:32:38;14.60;;;8.23;;
36315;SDS011;22343;50.820;2.666;2023-12-07T10:35:23;16.03;;;8.83;;
36315;SDS011;22343;50.820;2.666;2023-12-07T10:38:08;12.33;;;8.10;;
36315;SDS011;22343;50.820;2.666;2023-12-07T10:41:03;11.57;;;7.90;;
36315;SDS011;22343;50.820;2.666;2023-12-07T10:43:54;14.40;;;8.70;;
36315;SDS011;22343;50.820;2.666;2023-12-07T10:46:42;13.00;;;7.47;;
36315;SDS011;22343;50.820;2.666;2023-12-07T10:49:26;11.90;;;7.40;;
36315;SDS011;22343;50.820;2.666;2023-12-07T10:52:12;13.93;;;7.80;;
36315;SDS011;22343;50.820;2.666;2023-12-07T10:55:02;12.70;;;8.40;;
36315;SDS011;22343;50.820;2.666;2023-12-07T10:57:48;16.43;;;9.07;;
36315;SDS011;22343;50.820;2.666;2023-12-07T11:00:32;12.17;;;8.13;;
36315;SDS011;22343;50.820;2.666;2023-12-07T11:03:17;12.40;;;7.33;;
36315;SDS011;22343;50.820;2.666;2023-12-07T11:06:01;12.80;;;8.17;;
36315;SDS011;22343;50.820;2.666;2023-12-07T11:08:58;12.80;;;8.27;;
36315;SDS011;22343;50.820;2.666;2023-12-07T11:11:48;11.73;;;7.50;;
36315;SDS011;22343;50.820;2.666;2023-12-07T11:14:43;13.30;;;8.33;;
36315;SDS011;22343;50.820;2.666;2023-12-07T11:17:28;13.00;;;7.83;;
36315;SDS011;22343;50.820;2.666;2023-12-07T11:20:18;12.67;;;7.53;;
36315;SDS011;22343;50.820;2.666;2023-12-07T11:23:04;13.03;;;7.70;;
36315;SDS011;22343;50.820;2.666;2023-12-07T11:25:49;13.70;;;7.63;;
36315;SDS011;22343;50.820;2.666;2023-12-07T11:28:35;13.70;;;7.40;;
36315;SDS011;22343;50.820;2.666;2023-12-07T11:31:21;11.23;;;7.30;;
36315;SDS011;22343;50.820;2.666;2023-12-07T11:34:06;11.97;;;7.27;;
36315;SDS011;22343;50.820;2.666;2023-12-07T11:36:51;13.43;;;7.33;;
36315;SDS011;22343;50.820;2.666;2023-12-07T11:39:36;12.63;;;7.03;;
36315;SDS011;22343;50.820;2.666;2023-12-07T11:42:29;11.17;;;7.30;;
36315;SDS011;22343;50.820;2.666;2023-12-07T11:45:13;11.53;;;6.90;;
36315;SDS011;22343;50.820;2.666;2023-12-07T11:48:14;12.23;;;6.53;;
36315;SDS011;22343;50.820;2.666;2023-12-07T11:51:00;11.10;;;6.67;;
36315;SDS011;22343;50.820;2.666;2023-12-07T11:53:48;10.73;;;6.60;;
36315;SDS011;22343;50.820;2.666;2023-12-07T11:56:34;11.03;;;6.67;;
36315;SDS011;22343;50.820;2.666;2023-12-07T11:59:18;12.00;;;7.70;;
36315;SDS011;22343;50.820;2.666;2023-12-07T12:02:02;12.23;;;7.13;;
36315;SDS011;22343;50.820;2.666;2023-12-07T12:04:48;11.23;;;6.90;;
36315;SDS011;22343;50.820;2.666;2023-12-07T12:07:32;10.90;;;6.97;;
36315;SDS011;22343;50.820;2.666;2023-12-07T12:10:17;12.60;;;6.57;;
36315;SDS011;22343;50.820;2.666;2023-12-07T12:13:03;10.67;;;6.67;;
36315;SDS011;22343;50.820;2.666;2023-12-07T12:15:48;11.13;;;6.63;;
36315;SDS011;22343;50.820;2.666;2023-12-07T12:18:33;9.70;;;6.40;;
36315;SDS011;22343;50.820;2.666;2023-12-07T12:21:18;10.83;;;6.97;;
36315;SDS011;22343;50.820;2.666;2023-12-07T12:24:02;11.07;;;6.70;;
36315;SDS011;22343;50.820;2.666;2023-12-07T12:26:47;10.37;;;6.43;;
36315;SDS011;22343;50.820;2.666;2023-12-07T12:29:32;10.00;;;6.07;;
36315;SDS011;22343;50.820;2.666;2023-12-07T12:32:17;11.00;;;6.03;;
36315;SDS011;22343;50.820;2.666;2023-12-07T12:35:01;8.87;;;6.13;;
36315;SDS011;22343;50.820;2.666;2023-12-07T12:37:47;8.97;;;5.53;;
36315;SDS011;22343;50.820;2.666;2023-12-07T12:40:32;12.40;;;6.60;;
36315;SDS011;22343;50.820;2.666;2023-12-07T12:43:17;8.97;;;5.57;;
36315;SDS011;22343;50.820;2.666;2023-12-07T12:46:01;11.00;;;6.27;;
36315;SDS011;22343;50.820;2.666;2023-12-07T12:48:58;11.70;;;6.93;;
36315;SDS011;22343;50.820;2.666;2023-12-07T12:51:44;9.67;;;6.57;;
36315;SDS011;22343;50.820;2.666;2023-12-07T12:54:32;11.03;;;6.57;;
36315;SDS011;22343;50.820;2.666;2023-12-07T12:57:16;10.60;;;6.37;;
36315;SDS011;22343;50.820;2.666;2023-12-07T13:00:02;9.90;;;6.20;;
36315;SDS011;22343;50.820;2.666;2023-12-07T13:02:47;11.93;;;5.73;;
36315;SDS011;22343;50.820;2.666;2023-12-07T13:05:32;10.10;;;5.87;;
36315;SDS011;22343;50.820;2.666;2023-12-07T13:08:18;11.07;;;6.50;;
36315;SDS011;22343;50.820;2.666;2023-12-07T13:11:02;8.63;;;5.70;;
36315;SDS011;22343;50.820;2.666;2023-12-07T13:13:47;8.13;;;5.67;;
36315;SDS011;22343;50.820;2.666;2023-12-07T13:16:32;11.37;;;5.93;;
36315;SDS011;22343;50.820;2.666;2023-12-07T13:19:16;9.97;;;6.53;;
36315;SDS011;22343;50.820;2.666;2023-12-07T13:22:01;11.73;;;6.40;;
36315;SDS011;22343;50.820;2.666;2023-12-07T13:24:47;8.63;;;6.13;;
36315;SDS011;22343;50.820;2.666;2023-12-07T13:27:32;10.20;;;5.90;;
36315;SDS011;22343;50.820;2.666;2023-12-07T13:30:18;10.17;;;5.93;;
36315;SDS011;22343;50.820;2.666;2023-12-07T13:33:02;9.90;;;5.87;;
36315;SDS011;22343;50.820;2.666;2023-12-07T13:35:50;10.37;;;5.17;;
36315;SDS011;22343;50.820;2.666;2023-12-07T13:38:36;9.87;;;6.10;;
36315;SDS011;22343;50.820;2.666;2023-12-07T13:41:20;8.83;;;5.73;;
36315;SDS011;22343;50.820;2.666;2023-12-07T13:44:05;8.50;;;5.67;;
36315;SDS011;22343;50.820;2.666;2023-12-07T13:46:50;9.40;;;5.83;;
36315;SDS011;22343;50.820;2.666;2023-12-07T13:49:37;8.47;;;5.87;;
36315;SDS011;22343;50.820;2.666;2023-12-07T13:52:22;7.80;;;6.00;;
36315;SDS011;22343;50.820;2.666;2023-12-07T13:55:07;9.93;;;5.67;;
36315;SDS011;22343;50.820;2.666;2023-12-07T13:57:52;10.80;;;6.17;;
36315;SDS011;22343;50.820;2.666;2023-12-07T14:00:38;10.83;;;6.43;;
36315;SDS011;22343;50.820;2.666;2023-12-07T14:03:22;8.23;;;5.13;;
36315;SDS011;22343;50.820;2.666;2023-12-07T14:06:07;9.20;;;5.50;;
36315;SDS011;22343;50.820;2.666;2023-12-07T14:08:52;9.73;;;5.93;;
36315;SDS011;22343;50.820;2.666;2023-12-07T14:11:36;9.37;;;5.43;;
36315;SDS011;22343;50.820;2.666;2023-12-07T14:14:20;8.17;;;5.10;;
36315;SDS011;22343;50.820;2.666;2023-12-07T14:17:04;8.90;;;5.53;;
36315;SDS011;22343;50.820;2.666;2023-12-07T14:19:49;11.73;;;5.70;;
36315;SDS011;22343;50.820;2.666;2023-12-07T14:22:34;8.60;;;6.00;;
36315;SDS011;22343;50.820;2.666;2023-12-07T14:25:19;9.23;;;5.63;;
36315;SDS011;22343;50.820;2.666;2023-12-07T14:28:04;9.40;;;5.73;;
36315;SDS011;22343;50.820;2.666;2023-12-07T14:30:48;8.43;;;5.10;;
36315;SDS011;22343;50.820;2.666;2023-12-07T14:33:33;8.90;;;5.57;;
36315;SDS011;22343;50.820;2.666;2023-12-07T14:36:17;9.03;;;5.90;;
36315;SDS011;22343;50.820;2.666;2023-12-07T14:39:02;8.07;;;5.20;;
36315;SDS011;22343;50.820;2.666;2023-12-07T14:41:50;9.97;;;5.40;;
36315;SDS011;22343;50.820;2.666;2023-12-07T14:44:34;8.83;;;5.53;;
36315;SDS011;22343;50.820;2.666;2023-12-07T14:47:19;8.83;;;5.63;;
36315;SDS011;22343;50.820;2.666;2023-12-07T14:50:04;8.30;;;5.57;;
36315;SDS011;22343;50.820;2.666;2023-12-07T14:52:50;8.80;;;5.63;;
36315;SDS011;22343;50.820;2.666;2023-12-07T14:55:34;8.77;;;5.60;;
36315;SDS011;22343;50.820;2.666;2023-12-07T14:58:19;7.73;;;5.17;;
36315;SDS011;22343;50.820;2.666;2023-12-07T15:01:03;8.07;;;5.27;;
36315;SDS011;22343;50.820;2.666;2023-12-07T15:03:48;8.80;;;5.43;;
36315;SDS011;22343;50.820;2.666;2023-12-07T15:06:33;8.90;;;5.80;;
36315;SDS011;22343;50.820;2.666;2023-12-07T15:09:17;9.97;;;5.90;;
36315;SDS011;22343;50.820;2.666;2023-12-07T15:12:03;8.53;;;5.30;;
36315;SDS011;22343;50.820;2.666;2023-12-07T15:14:48;9.33;;;5.57;;
36315;SDS011;22343;50.820;2.666;2023-12-07T15:17:32;8.37;;;5.50;;
36315;SDS011;22343;50.820;2.666;2023-12-07T15:20:16;9.90;;;6.10;;
36315;SDS011;22343;50.820;2.666;2023-12-07T15:23:01;8.47;;;5.40;;
36315;SDS011;22343;50.820;2.666;2023-12-07T15:25:46;8.77;;;5.97;;
36315;SDS011;22343;50.820;2.666;2023-12-07T15:28:30;9.70;;;5.70;;
36315;SDS011;22343;50.820;2.666;2023-12-07T15:31:15;10.90;;;6.60;;
36315;SDS011;22343;50.820;2.666;2023-12-07T15:33:59;10.53;;;6.07;;
36315;SDS011;22343;50.820;2.666;2023-12-07T15:36:44;8.50;;;5.80;;
36315;SDS011;22343;50.820;2.666;2023-12-07T15:39:28;11.77;;;6.27;;
36315;SDS011;22343;50.820;2.666;2023-12-07T15:42:14;11.17;;;6.60;;
36315;SDS011;22343;50.820;2.666;2023-12-07T15:44:58;9.37;;;5.70;;
36315;SDS011;22343;50.820;2.666;2023-12-07T15:47:42;9.30;;;5.70;;
36315;SDS011;22343;50.820;2.666;2023-12-07T15:50:27;9.67;;;6.00;;
36315;SDS011;22343;50.820;2.666;2023-12-07T15:53:11;9.53;;;5.60;;
36315;SDS011;22343;50.820;2.666;2023-12-07T15:55:55;9.20;;;5.80;;
36315;SDS011;22343;50.820;2.666;2023-12-07T15:58:39;9.57;;;5.30;;
36315;SDS011;22343;50.820;2.666;2023-12-07T16:01:24;8.60;;;5.50;;
36315;SDS011;22343;50.820;2.666;2023-12-07T16:04:08;8.60;;;5.80;;
36315;SDS011;22343;50.820;2.666;2023-12-07T16:06:54;10.10;;;5.67;;
36315;SDS011;22343;50.820;2.666;2023-12-07T16:09:38;8.53;;;5.43;;
36315;SDS011;22343;50.820;2.666;2023-12-07T16:12:25;7.70;;;4.83;;
36315;SDS011;22343;50.820;2.666;2023-12-07T16:15:09;9.13;;;6.07;;
36315;SDS011;22343;50.820;2.666;2023-12-07T16:17:54;7.77;;;5.37;;
36315;SDS011;22343;50.820;2.666;2023-12-07T16:20:38;8.87;;;5.43;;